Hancock, Maryland
Current Conditions -  °F | °C
As of 9:53 PM on Saturday 20 Dec 2014 (Local Time) from KMRB Reporting Station
Overcast Overcast  
Wind Chill: 32°   Ceiling: 11000
Heat Index: 32°   Visibility: 10mi
Dew Point: 21°   Wind: 0mph
Humidity: 64%   Direction: NA
Pressure: 30.27"   Gusts: NA
Location:  39.7°N, 78.18°W
Report Text: KMRB 210253Z AUTO 00000KT 10SM OVC110 00/M06 A3027 RMK AO2 SLP258 T00001061 50001 TSNO
Loading
Personal Weather Stations






























Interactive Weather Map New forecast layout! Learn more

10-Day Weather Forecast

Advertisements
Track Severe Weather on mobile